Blue Ridge Airport


Codes: KMTV/
Name: Blue Ridge Airport
City: Martinsville
Country: United States
Elevation: 941 ft.

Photos at Blue Ridge Airport


   Photos courtesy of SpottingLog. You can add your own sightings and photos by signing up for a free trial today.



No photos found.

Weather at Blue Ridge Airport


Time (UTC)DescriptionTempratureWindCloud coverageVisibilityPressureHumidity
13-Jun-2024 03:00Broken Clouds22°C2 mph, SW57%10000m1017hPa74%
13-Jun-2024 06:00Broken Clouds20°C0 mph, S75%10000m1016hPa80%
13-Jun-2024 09:00Overcast Clouds16°C2 mph, W100%10000m1016hPa92%
13-Jun-2024 12:00Overcast Clouds20°C2 mph, SW98%10000m1017hPa77%
13-Jun-2024 15:00Broken Clouds28°C7 mph, S75%10000m1017hPa50%
13-Jun-2024 18:00Broken Clouds31°C7 mph, S69%10000m1015hPa36%
13-Jun-2024 21:00Overcast Clouds27°C2 mph, S97%10000m1014hPa55%
14-Jun-2024 00:00Broken Clouds25°C2 mph, S78%10000m1015hPa64%
14-Jun-2024 03:00Scattered Clouds22°C2 mph, S41%10000m1016hPa68%
14-Jun-2024 06:00Few Clouds19°C4 mph, SW20%10000m1015hPa78%
14-Jun-2024 09:00Clear Sky17°C2 mph, SW0%10000m1015hPa84%
14-Jun-2024 12:00Clear Sky22°C4 mph, SW0%10000m1015hPa69%
14-Jun-2024 15:00Clear Sky30°C4 mph, SW8%10000m1014hPa42%
14-Jun-2024 18:00Scattered Clouds32°C2 mph, SW37%10000m1011hPa42%
14-Jun-2024 21:00Light Rain25°C2 mph, SW81%10000m1012hPa70%
15-Jun-2024 00:00Light Rain24°C2 mph, SW71%10000m1012hPa80%
15-Jun-2024 03:00Few Clouds22°C4 mph, NW14%10000m1013hPa77%
15-Jun-2024 06:00Few Clouds20°C4 mph, N18%10000m1014hPa79%
15-Jun-2024 09:00Clear Sky18°C2 mph, N0%10000m1015hPa90%
15-Jun-2024 12:00Clear Sky21°C4 mph, NE0%10000m1017hPa78%
15-Jun-2024 15:00Clear Sky27°C4 mph, E5%10000m1017hPa50%
15-Jun-2024 18:00Few Clouds31°C4 mph, E18%10000m1015hPa29%
15-Jun-2024 21:00Clear Sky32°C9 mph, E10%10000m1014hPa24%
16-Jun-2024 00:00Clear Sky24°C4 mph, SE4%10000m1017hPa55%
16-Jun-2024 03:00Few Clouds19°C2 mph, NE11%10000m1018hPa66%
16-Jun-2024 06:00Scattered Clouds17°C4 mph, N36%10000m1020hPa71%
16-Jun-2024 09:00Overcast Clouds17°C4 mph, NE91%10000m1021hPa70%
16-Jun-2024 12:00Overcast Clouds19°C2 mph, SE94%10000m1022hPa78%
16-Jun-2024 15:00Overcast Clouds25°C4 mph, S100%10000m1022hPa64%
16-Jun-2024 18:00Overcast Clouds26°C4 mph, SW100%10000m1021hPa61%
16-Jun-2024 21:00Overcast Clouds27°C4 mph, SW96%10000m1020hPa63%
17-Jun-2024 00:00Broken Clouds25°C2 mph, S73%10000m1019hPa72%
17-Jun-2024 03:00Broken Clouds21°C4 mph, S72%10000m1021hPa84%
17-Jun-2024 06:00Broken Clouds19°C4 mph, S79%10000m1022hPa80%
17-Jun-2024 09:00Scattered Clouds18°C4 mph, S45%10000m1022hPa89%
17-Jun-2024 12:00Scattered Clouds21°C4 mph, SW34%10000m1022hPa75%
17-Jun-2024 15:00Few Clouds28°C7 mph, SW12%10000m1022hPa51%
17-Jun-2024 18:00Clear Sky32°C7 mph, S10%10000m1020hPa41%
17-Jun-2024 21:00Scattered Clouds33°C9 mph, S38%10000m1019hPa39%
18-Jun-2024 00:00Broken Clouds27°C4 mph, S69%10000m1020hPa65%